Time;durP1;ratioP1;P1;durP2;ratioP2;P2;SDS_P1;SDS_P2;PMS_P1;PMS_P2;Temp;Humidity;BMP_temperature;BMP_pressure;BME280_temperature;BME280_humidity;BME280_pressure;Samples;Min_cycle;Max_cycle;Signal;HPM_P1;HPM_P2
2023/09/25 00:00:32;;;;;;;24.67;4.60;;;;;;;-143.19;100.00;53775.09;4961153;28;20230;-79
2023/09/25 00:03:00;;;;;;;17.70;3.78;;;;;;;-143.19;100.00;53775.09;4953924;28;20214;-78
2023/09/25 00:05:28;;;;;;;19.83;3.83;;;;;;;-143.19;100.00;53775.09;4954858;28;20277;-78
2023/09/25 00:07:55;;;;;;;23.42;4.55;;;;;;;-143.19;100.00;53775.09;4956764;28;20271;-79
2023/09/25 00:10:23;;;;;;;18.98;3.67;;;;;;;-143.19;100.00;53775.09;4951572;28;20524;-78
2023/09/25 00:12:50;;;;;;;34.22;6.32;;;;;;;-143.19;100.00;53775.09;4952644;28;20688;-78
2023/09/25 00:15:16;;;;;;;27.27;5.28;;;;;;;-143.19;100.00;53775.09;4955944;28;20218;-79
2023/09/25 00:17:43;;;;;;;22.38;4.22;;;;;;;-143.19;100.00;53775.09;4951972;28;20209;-78
2023/09/25 00:20:11;;;;;;;19.15;3.67;;;;;;;-143.19;100.00;53775.09;4951880;28;20240;-79
2023/09/25 00:22:38;;;;;;;20.88;3.95;;;;;;;-143.19;100.00;53775.09;4950425;28;20299;-78
2023/09/25 00:25:06;;;;;;;30.30;6.10;;;;;;;-143.19;100.00;53775.09;4955324;28;20234;-79
2023/09/25 00:27:33;;;;;;;25.27;5.07;;;;;;;-143.19;100.00;53775.09;4950631;28;20217;-79
2023/09/25 00:30:00;;;;;;;25.85;4.90;;;;;;;-143.19;100.00;53775.09;4958638;28;20210;-79
2023/09/25 00:32:27;;;;;;;21.17;4.30;;;;;;;-143.19;100.00;53775.09;4953716;28;20311;-79
2023/09/25 00:34:54;;;;;;;25.55;4.80;;;;;;;-143.19;100.00;53775.09;4951055;29;20230;-80
2023/09/25 00:37:21;;;;;;;21.60;4.15;;;;;;;-143.19;100.00;53775.09;4953371;28;20210;-79
2023/09/25 00:39:48;;;;;;;24.42;4.70;;;;;;;-143.19;100.00;53775.09;4949931;28;20229;-80
2023/09/25 00:42:15;;;;;;;19.50;3.67;;;;;;;-143.19;100.00;53775.09;4954917;28;20204;-79
2023/09/25 00:44:42;;;;;;;25.02;4.97;;;;;;;-143.19;100.00;53775.09;4961258;28;20247;-79
2023/09/25 00:47:09;;;;;;;25.98;5.03;;;;;;;-143.19;100.00;53775.09;4955408;28;20264;-79
2023/09/25 00:49:36;;;;;;;20.90;4.10;;;;;;;-143.19;100.00;53775.09;4957308;28;20209;-80
2023/09/25 00:52:03;;;;;;;25.65;4.93;;;;;;;-143.19;100.00;53775.09;4944385;28;20214;-79
2023/09/25 00:54:33;;;;;;;15.63;3.40;;;;;;;-143.19;100.00;53775.09;4960406;28;20693;-79
2023/09/25 00:57:08;;;;;;;28.17;5.40;;;;;;;-143.19;100.00;53775.09;4937050;28;20232;-79
2023/09/25 00:59:38;;;;;;;24.65;4.90;;;;;;;-143.19;100.00;53775.09;4953265;28;20662;-79
2023/09/25 01:02:04;;;;;;;25.52;4.95;;;;;;;-143.19;100.00;53775.09;4953112;28;20210;-79
2023/09/25 01:04:31;;;;;;;20.90;4.38;;;;;;;-143.19;100.00;53775.09;4950071;28;20225;-79
2023/09/25 01:06:58;;;;;;;22.73;4.38;;;;;;;-143.19;100.00;53775.09;4949612;28;20213;-78
2023/09/25 01:09:25;;;;;;;22.90;6.95;;;;;;;-143.19;100.00;53775.09;4950117;28;20217;-79
2023/09/25 01:11:52;;;;;;;31.55;6.90;;;;;;;-143.19;100.00;53775.09;4952524;28;20301;-78
2023/09/25 01:14:18;;;;;;;19.23;5.53;;;;;;;-143.19;100.00;53775.09;4950394;28;20229;-79
2023/09/25 01:16:45;;;;;;;26.00;6.55;;;;;;;-143.19;100.00;53775.09;4954328;28;20210;-79
2023/09/25 01:19:13;;;;;;;24.42;5.20;;;;;;;-143.19;100.00;53775.09;4951938;28;20214;-79
2023/09/25 01:21:46;;;;;;;21.55;5.60;;;;;;;-143.19;100.00;53775.09;4958754;28;20469;-80
2023/09/25 01:24:12;;;;;;;28.27;5.65;;;;;;;-143.19;100.00;53775.09;4947544;28;20237;-79
2023/09/25 01:26:39;;;;;;;25.85;7.43;;;;;;;-143.19;100.00;53775.09;4955964;28;20225;-79
2023/09/25 01:29:06;;;;;;;21.95;6.28;;;;;;;-143.19;100.00;53775.09;4945010;28;20216;-79
2023/09/25 01:31:33;;;;;;;40.15;9.68;;;;;;;-143.19;100.00;53775.09;4958068;28;20221;-79
2023/09/25 01:34:00;;;;;;;28.92;10.18;;;;;;;-143.19;100.00;53775.09;4950547;28;20261;-79
2023/09/25 01:36:27;;;;;;;30.70;12.95;;;;;;;-143.19;100.00;53775.09;4954685;28;20206;-79
2023/09/25 01:38:54;;;;;;;24.65;12.48;;;;;;;-143.19;100.00;53775.09;4954837;28;20209;-79
2023/09/25 01:41:20;;;;;;;25.65;18.15;;;;;;;-143.19;100.00;53775.09;4952852;28;20237;-79
2023/09/25 01:43:47;;;;;;;38.95;15.45;;;;;;;-143.19;100.00;53775.09;4953782;28;20230;-80
2023/09/25 01:46:14;;;;;;;22.02;11.27;;;;;;;-143.19;100.00;53775.09;4947094;28;20690;-79
2023/09/25 01:48:41;;;;;;;37.47;10.85;;;;;;;-143.19;100.00;53775.09;4947174;28;20288;-80
2023/09/25 01:51:09;;;;;;;30.10;9.70;;;;;;;-143.19;100.00;53775.09;4950762;28;20205;-79
2023/09/25 01:53:36;;;;;;;20.00;4.53;;;;;;;-143.19;100.00;53775.09;4953300;28;20229;-79
2023/09/25 01:56:13;;;;;;;24.63;9.75;;;;;;;-143.19;100.00;53775.09;4951951;28;20301;-79
2023/09/25 01:58:44;;;;;;;23.17;8.57;;;;;;;-143.19;100.00;53775.09;4947873;28;20233;-80
2023/09/25 02:01:10;;;;;;;20.65;6.78;;;;;;;-143.19;100.00;53775.09;4957966;28;20249;-79
2023/09/25 02:03:37;;;;;;;29.13;9.15;;;;;;;-143.19;100.00;53775.09;4954729;28;20237;-78
2023/09/25 02:06:05;;;;;;;23.13;7.03;;;;;;;-143.19;100.00;53775.09;4958699;28;20212;-79
2023/09/25 02:08:32;;;;;;;21.35;4.18;;;;;;;-143.19;100.00;53775.09;4945125;28;20207;-79
2023/09/25 02:10:59;;;;;;;23.33;4.60;;;;;;;-143.19;100.00;53775.09;4968892;28;20213;-79
2023/09/25 02:13:26;;;;;;;20.90;4.05;;;;;;;-143.19;100.00;53775.09;4953648;28;20763;-80
2023/09/25 02:15:54;;;;;;;24.83;4.72;;;;;;;-143.19;100.00;53775.09;4948122;28;20206;-79
2023/09/25 02:18:21;;;;;;;17.88;3.60;;;;;;;-143.19;100.00;53775.09;4953809;28;20301;-79
2023/09/25 02:20:48;;;;;;;18.85;3.70;;;;;;;-143.19;100.00;53775.09;4962180;28;20326;-79
2023/09/25 02:23:15;;;;;;;27.65;5.25;;;;;;;-143.19;100.00;53775.09;4956093;28;20296;-79
2023/09/25 02:25:42;;;;;;;23.35;4.75;;;;;;;-143.19;100.00;53775.09;4959353;28;20206;-79
2023/09/25 02:28:09;;;;;;;29.92;6.00;;;;;;;-143.19;100.00;53775.09;4957264;28;20210;-79
2023/09/25 02:30:36;;;;;;;29.33;5.88;;;;;;;-143.19;100.00;53775.09;4959618;28;20210;-79
2023/09/25 02:33:03;;;;;;;20.38;7.05;;;;;;;-143.19;100.00;53775.09;4957180;28;20228;-79
2023/09/25 02:35:31;;;;;;;26.58;6.07;;;;;;;-143.19;100.00;53775.09;4954223;28;20288;-80
2023/09/25 02:37:59;;;;;;;25.50;8.65;;;;;;;-143.19;100.00;53775.09;4953004;28;20202;-79
2023/09/25 02:40:25;;;;;;;22.08;8.65;;;;;;;-143.19;100.00;53775.09;4949376;28;20237;-79
2023/09/25 02:42:52;;;;;;;43.35;8.00;;;;;;;-143.19;100.00;53775.09;4950041;28;20209;-80
2023/09/25 02:45:19;;;;;;;25.27;7.03;;;;;;;-143.19;100.00;53775.09;4951685;28;20210;-78
2023/09/25 02:47:46;;;;;;;31.67;6.63;;;;;;;-143.19;100.00;53775.09;4956202;28;20748;-78
2023/09/25 02:50:12;;;;;;;36.35;6.72;;;;;;;-143.19;100.00;53775.09;4949043;29;20301;-79
2023/09/25 02:52:39;;;;;;;22.75;4.68;;;;;;;-143.19;100.00;53775.09;4955389;28;20206;-80
2023/09/25 02:55:07;;;;;;;20.52;5.80;;;;;;;-143.19;100.00;53775.09;4956660;28;20256;-79
2023/09/25 02:57:34;;;;;;;23.00;9.30;;;;;;;-143.19;100.00;53775.09;4987895;28;20309;-78
2023/09/25 03:00:01;;;;;;;20.95;4.35;;;;;;;-143.19;100.00;53775.09;4956472;28;20213;-79
2023/09/25 03:02:28;;;;;;;44.63;8.38;;;;;;;-143.19;100.00;53775.09;4947996;28;20221;-78
2023/09/25 03:04:55;;;;;;;25.55;7.55;;;;;;;-143.19;100.00;53775.09;4955650;28;20725;-78
2023/09/25 03:07:21;;;;;;;26.98;7.15;;;;;;;-143.19;100.00;53775.09;4953235;28;20219;-78
2023/09/25 03:09:48;;;;;;;29.13;8.95;;;;;;;-143.19;100.00;53775.09;4953844;28;20206;-79
2023/09/25 03:12:15;;;;;;;21.25;6.53;;;;;;;-143.19;100.00;53775.09;4958277;28;20209;-79
2023/09/25 03:14:42;;;;;;;22.15;4.82;;;;;;;-143.19;100.00;53775.09;4956437;28;20242;-79
2023/09/25 03:17:09;;;;;;;18.58;3.53;;;;;;;-143.19;100.00;53775.09;4951055;28;20298;-78
2023/09/25 03:19:38;;;;;;;19.67;3.78;;;;;;;-143.19;100.00;53775.09;4953876;28;20210;-78
2023/09/25 03:22:05;;;;;;;22.55;4.22;;;;;;;-143.19;100.00;53775.09;4958000;28;20280;-80
2023/09/25 03:24:31;;;;;;;24.88;5.03;;;;;;;-143.19;100.00;53775.09;4958078;28;20237;-79
2023/09/25 03:26:58;;;;;;;13.68;3.20;;;;;;;-143.19;100.00;53775.09;4955556;28;20202;-79
2023/09/25 03:29:25;;;;;;;26.77;5.63;;;;;;;-143.19;100.00;53775.09;4954678;28;20206;-79
2023/09/25 03:31:52;;;;;;;22.30;4.40;;;;;;;-143.19;100.00;53775.09;4954728;28;20209;-78
2023/09/25 03:34:20;;;;;;;22.52;4.38;;;;;;;-143.19;100.00;53775.09;4956606;28;20329;-80
2023/09/25 03:36:47;;;;;;;21.70;4.63;;;;;;;-143.19;100.00;53775.09;4955080;28;20213;-79
2023/09/25 03:39:14;;;;;;;15.05;3.35;;;;;;;-143.19;100.00;53775.09;4960951;28;20238;-79
2023/09/25 03:41:41;;;;;;;22.17;4.20;;;;;;;-143.19;100.00;53775.09;4954166;28;20233;-80
2023/09/25 03:44:07;;;;;;;22.60;9.88;;;;;;;-143.19;100.00;53775.09;4955333;28;20230;-78
2023/09/25 03:46:34;;;;;;;21.00;6.03;;;;;;;-143.19;100.00;53775.09;4964457;28;20225;-78
2023/09/25 03:49:05;;;;;;;28.40;7.50;;;;;;;-143.19;100.00;53775.09;4952745;28;20213;-78
2023/09/25 03:51:33;;;;;;;26.00;7.43;;;;;;;-143.19;100.00;53775.09;4954202;28;20218;-78
2023/09/25 03:54:00;;;;;;;24.35;4.63;;;;;;;-143.19;100.00;53775.09;4958722;28;20250;-79
2023/09/25 03:56:29;;;;;;;27.33;5.18;;;;;;;-143.19;100.00;53775.09;4960587;28;20234;-79
2023/09/25 03:58:56;;;;;;;23.02;4.45;;;;;;;-143.19;100.00;53775.09;4961872;28;20296;-79
2023/09/25 04:01:23;;;;;;;22.33;4.60;;;;;;;-143.19;100.00;53775.09;4951210;28;20235;-79
2023/09/25 04:03:50;;;;;;;28.92;5.30;;;;;;;-143.19;100.00;53775.09;4942840;28;20250;-79
2023/09/25 04:06:18;;;;;;;31.17;5.75;;;;;;;-143.19;100.00;53775.09;4951712;28;20217;-79
2023/09/25 04:08:45;;;;;;;27.63;5.13;;;;;;;-143.19;100.00;53775.09;4948726;28;20202;-79
2023/09/25 04:11:12;;;;;;;30.38;6.32;;;;;;;-143.19;100.00;53775.09;4953692;28;20213;-78
2023/09/25 04:13:41;;;;;;;23.52;6.25;;;;;;;-143.19;100.00;53775.09;4959315;28;20234;-79
2023/09/25 04:16:12;;;;;;;20.52;4.35;;;;;;;-143.19;100.00;53775.09;4957028;28;20306;-79
2023/09/25 04:18:39;;;;;;;18.52;3.85;;;;;;;-143.19;100.00;53775.09;4954416;28;20630;-79
2023/09/25 04:21:06;;;;;;;27.73;6.13;;;;;;;-143.19;100.00;53775.09;4954966;28;20598;-79
2023/09/25 04:23:33;;;;;;;21.77;4.35;;;;;;;-143.19;100.00;53775.09;4951701;28;20250;-79
2023/09/25 04:26:00;;;;;;;28.67;5.70;;;;;;;-143.19;100.00;53775.09;4955001;28;20281;-78
2023/09/25 04:28:28;;;;;;;17.33;4.53;;;;;;;-143.19;100.00;53775.09;4968042;28;20594;-78
2023/09/25 04:30:59;;;;;;;18.88;3.80;;;;;;;-143.19;100.00;53775.09;4950508;29;20658;-78
2023/09/25 04:33:29;;;;;;;19.55;3.85;;;;;;;-143.19;100.00;53775.09;4937285;29;20249;-78
2023/09/25 04:36:01;;;;;;;33.55;6.28;;;;;;;-143.19;100.00;53775.09;4953220;28;20260;-79
2023/09/25 04:38:31;;;;;;;18.65;3.80;;;;;;;-143.19;100.00;53775.09;4953101;28;20265;-78
2023/09/25 04:40:58;;;;;;;25.67;4.88;;;;;;;-143.19;100.00;53775.09;4950697;28;20284;-79
2023/09/25 04:43:25;;;;;;;19.20;3.67;;;;;;;-143.19;100.00;53775.09;4958228;28;20244;-79
2023/09/25 04:45:52;;;;;;;24.65;4.93;;;;;;;-143.19;100.00;53775.09;4958158;28;20229;-78
2023/09/25 04:48:19;;;;;;;18.27;4.82;;;;;;;-143.19;100.00;53775.09;4956735;28;20217;-79
2023/09/25 04:50:46;;;;;;;30.27;6.25;;;;;;;-143.19;100.00;53775.09;4950276;28;20233;-78
2023/09/25 04:53:13;;;;;;;15.73;3.13;;;;;;;-143.19;100.00;53775.09;4957539;28;20238;-79
2023/09/25 04:55:40;;;;;;;22.10;4.22;;;;;;;-143.19;100.00;53775.09;4954114;28;20217;-79
2023/09/25 04:58:08;;;;;;;33.30;6.13;;;;;;;-143.19;100.00;53775.09;4952422;28;20206;-79
2023/09/25 05:00:34;;;;;;;24.17;4.72;;;;;;;-143.19;100.00;53775.09;4953796;28;20210;-79
2023/09/25 05:03:01;;;;;;;21.67;3.97;;;;;;;-143.19;100.00;53775.09;4958366;28;20216;-79
2023/09/25 05:05:29;;;;;;;23.33;4.32;;;;;;;-143.19;100.00;53775.09;4937527;28;20222;-78
2023/09/25 05:07:56;;;;;;;32.20;5.95;;;;;;;-143.19;100.00;53775.09;4955264;28;20212;-78
2023/09/25 05:10:25;;;;;;;21.17;4.07;;;;;;;-143.19;100.00;53775.09;4950223;28;20277;-78
2023/09/25 05:12:53;;;;;;;39.45;7.40;;;;;;;-143.19;100.00;53775.09;4951833;28;20614;-78
2023/09/25 05:15:21;;;;;;;32.42;6.00;;;;;;;-143.19;100.00;53775.09;4952569;28;20210;-78
2023/09/25 05:17:48;;;;;;;24.02;4.70;;;;;;;-143.19;100.00;53775.09;4950826;28;20210;-78
2023/09/25 05:20:22;;;;;;;22.92;4.63;;;;;;;-143.19;100.00;53775.09;4961319;28;20229;-78
2023/09/25 05:22:54;;;;;;;34.38;6.30;;;;;;;-143.19;100.00;53775.09;4948082;28;20236;-78
2023/09/25 05:25:22;;;;;;;26.95;4.97;;;;;;;-143.19;100.00;53775.09;4958403;28;20202;-79
2023/09/25 05:27:51;;;;;;;28.58;5.55;;;;;;;-143.19;100.00;53775.09;4948903;28;20206;-78
2023/09/25 05:30:19;;;;;;;23.30;4.60;;;;;;;-143.19;100.00;53775.09;4957463;28;20213;-78
2023/09/25 05:32:48;;;;;;;26.40;5.57;;;;;;;-143.19;100.00;53775.09;4950911;28;20210;-78
2023/09/25 05:35:15;;;;;;;22.08;4.70;;;;;;;-143.19;100.00;53775.09;4950994;28;20278;-78
2023/09/25 05:37:43;;;;;;;16.70;4.30;;;;;;;-143.19;100.00;53775.09;4949826;29;20221;-78
2023/09/25 05:40:10;;;;;;;23.92;4.82;;;;;;;-143.19;100.00;53775.09;4952700;28;20619;-78
2023/09/25 05:42:45;;;;;;;22.40;4.30;;;;;;;-143.19;100.00;53775.09;4959283;28;20289;-79
2023/09/25 05:45:12;;;;;;;24.25;4.75;;;;;;;-143.19;100.00;53775.09;4972954;28;20236;-79
2023/09/25 05:47:40;;;;;;;27.23;5.95;;;;;;;-143.19;100.00;53775.09;4963011;28;20221;-79
2023/09/25 05:50:07;;;;;;;31.58;7.35;;;;;;;-143.19;100.00;53775.09;4949785;28;20205;-79
2023/09/25 05:52:34;;;;;;;45.30;8.60;;;;;;;-143.19;100.00;53775.09;4959104;28;20564;-78
2023/09/25 05:55:04;;;;;;;36.85;7.18;;;;;;;-143.19;100.00;53775.09;4945369;28;20242;-80
2023/09/25 05:57:31;;;;;;;28.17;5.95;;;;;;;-143.19;100.00;53775.09;4950736;28;20668;-78
2023/09/25 06:00:03;;;;;;;21.35;6.25;;;;;;;-143.19;100.00;53775.09;4945555;28;20245;-79
2023/09/25 06:02:33;;;;;;;31.35;10.43;;;;;;;-143.19;100.00;53775.09;4953797;28;20242;-78
2023/09/25 06:05:03;;;;;;;26.65;13.82;;;;;;;-143.19;100.00;53775.09;4943539;28;20237;-78
2023/09/25 06:07:30;;;;;;;26.67;8.20;;;;;;;-143.19;100.00;53775.09;4947243;28;20210;-79
2023/09/25 06:09:57;;;;;;;25.92;7.53;;;;;;;-143.19;100.00;53775.09;4953358;28;20214;-78
2023/09/25 06:12:24;;;;;;;26.77;5.85;;;;;;;-143.19;100.00;53775.09;4954178;28;20210;-79
2023/09/25 06:14:50;;;;;;;17.67;4.95;;;;;;;-143.19;100.00;53775.09;4945092;28;20663;-79
2023/09/25 06:17:17;;;;;;;21.00;6.03;;;;;;;-143.19;100.00;53775.09;4954064;28;20213;-79
2023/09/25 06:19:44;;;;;;;24.15;5.95;;;;;;;-143.19;100.00;53775.09;4953780;28;20213;-79
2023/09/25 06:22:10;;;;;;;22.20;4.47;;;;;;;-143.19;100.00;53775.09;4940693;28;20245;-79
2023/09/25 06:24:37;;;;;;;26.75;5.53;;;;;;;-143.19;100.00;53775.09;4952872;28;20669;-78
2023/09/25 06:27:04;;;;;;;19.83;4.35;;;;;;;-143.19;100.00;53775.09;4933548;28;20211;-79
2023/09/25 06:29:31;;;;;;;24.55;6.07;;;;;;;-143.19;100.00;53775.09;4934704;29;20218;-79
2023/09/25 06:31:58;;;;;;;23.60;6.00;;;;;;;-143.19;100.00;53775.09;4936058;29;20218;-79
2023/09/25 06:34:27;;;;;;;20.55;4.05;;;;;;;-143.19;100.00;53775.09;4952120;29;20242;-78
2023/09/25 06:36:55;;;;;;;23.65;4.65;;;;;;;-143.19;100.00;53775.09;4953872;28;20211;-79
2023/09/25 06:39:23;;;;;;;20.42;3.72;;;;;;;-143.19;100.00;53775.09;4972975;28;20637;-79
2023/09/25 06:41:50;;;;;;;21.05;4.03;;;;;;;-143.19;100.00;53775.09;4972183;28;20232;-79
2023/09/25 06:44:16;;;;;;;20.65;4.18;;;;;;;-143.19;100.00;53775.09;4953870;28;20237;-79
2023/09/25 06:46:43;;;;;;;17.80;5.22;;;;;;;-143.19;100.00;53775.09;4956367;28;20209;-78
2023/09/25 06:49:10;;;;;;;17.60;3.42;;;;;;;-143.19;100.00;53775.09;4957376;28;20210;-78
2023/09/25 06:51:37;;;;;;;19.75;4.13;;;;;;;-143.19;100.00;53775.09;4953444;28;20221;-79
2023/09/25 06:54:04;;;;;;;21.48;4.05;;;;;;;-143.19;100.00;53775.09;4939981;28;20694;-79
2023/09/25 06:56:31;;;;;;;20.42;4.45;;;;;;;-143.19;100.00;53775.09;4952055;29;20217;-78
2023/09/25 06:58:57;;;;;;;31.52;11.63;;;;;;;-143.19;100.00;53775.09;4944863;28;20206;-78
2023/09/25 07:01:24;;;;;;;21.65;7.97;;;;;;;-143.19;100.00;53775.09;4953514;28;20230;-78
2023/09/25 07:03:51;;;;;;;29.58;5.88;;;;;;;-143.19;100.00;53775.09;4944973;28;20226;-79
2023/09/25 07:06:19;;;;;;;24.80;4.82;;;;;;;-143.19;100.00;53775.09;4985474;28;20727;-78
2023/09/25 07:08:46;;;;;;;32.33;7.10;;;;;;;-143.19;100.00;53775.09;4956972;28;20210;-78
2023/09/25 07:11:18;;;;;;;21.95;5.03;;;;;;;-143.19;100.00;53775.09;4955315;28;20206;-78
2023/09/25 07:13:45;;;;;;;27.50;6.82;;;;;;;-143.19;100.00;53775.09;4953875;28;20234;-78
2023/09/25 07:16:11;;;;;;;24.17;5.53;;;;;;;-143.19;100.00;53775.09;4941864;28;20207;-78
2023/09/25 07:18:38;;;;;;;20.52;4.03;;;;;;;-143.19;100.00;53775.09;4961289;28;20265;-79
2023/09/25 07:21:06;;;;;;;18.15;3.55;;;;;;;-143.19;100.00;53775.09;4956741;28;20649;-79
2023/09/25 07:23:33;;;;;;;18.15;5.07;;;;;;;-143.19;100.00;53775.09;4960735;28;20232;-78
2023/09/25 07:26:07;;;;;;;23.08;4.60;;;;;;;-143.19;100.00;53775.09;4940088;28;20590;-79
2023/09/25 07:28:37;;;;;;;54.75;10.00;;;;;;;-143.19;100.00;53775.09;4953617;28;20421;-79
2023/09/25 07:31:05;;;;;;;41.15;7.63;;;;;;;-143.19;100.00;53775.09;4950884;28;20210;-81
2023/09/25 07:33:35;;;;;;;27.27;6.07;;;;;;;-143.19;100.00;53775.09;4952885;28;20251;-79
2023/09/25 07:36:07;;;;;;;22.58;7.90;;;;;;;-143.19;100.00;53775.09;4953243;28;20218;-81
2023/09/25 07:38:35;;;;;;;118.72;22.50;;;;;;;-143.19;100.00;53775.09;4954055;28;20308;-81
2023/09/25 07:41:02;;;;;;;28.40;8.55;;;;;;;-143.19;100.00;53775.09;4939784;29;20206;-80
2023/09/25 07:43:32;;;;;;;30.13;8.15;;;;;;;-143.19;100.00;53775.09;4957311;28;20240;-80
2023/09/25 07:46:02;;;;;;;25.63;4.90;;;;;;;-143.19;100.00;53775.09;4955983;28;20232;-81
2023/09/25 07:48:32;;;;;;;18.58;4.60;;;;;;;-143.19;100.00;53775.09;4959425;28;20268;-79
2023/09/25 07:50:59;;;;;;;21.50;5.32;;;;;;;-143.19;100.00;53775.09;4948642;28;20213;-80
2023/09/25 07:53:29;;;;;;;35.00;6.70;;;;;;;-143.19;100.00;53775.09;4952741;28;20229;-80
2023/09/25 07:55:56;;;;;;;26.85;5.57;;;;;;;-143.19;100.00;53775.09;4952210;28;20585;-79
2023/09/25 07:58:23;;;;;;;19.83;4.78;;;;;;;-143.19;100.00;53775.09;4963556;28;20626;-78
2023/09/25 08:00:51;;;;;;;24.58;5.55;;;;;;;-143.19;100.00;53775.09;4945414;29;20214;-79
2023/09/25 08:03:23;;;;;;;22.25;4.68;;;;;;;-143.19;100.00;53775.09;4954645;28;20268;-79
2023/09/25 08:05:53;;;;;;;19.65;5.15;;;;;;;-143.19;100.00;53775.09;4951789;29;20222;-78
2023/09/25 08:08:20;;;;;;;20.77;5.70;;;;;;;-143.19;100.00;53775.09;4956015;28;20236;-79
2023/09/25 08:10:47;;;;;;;23.02;6.13;;;;;;;-143.19;100.00;53775.09;4956900;28;20333;-79
2023/09/25 08:13:16;;;;;;;47.97;8.75;;;;;;;-143.19;100.00;53775.09;4954293;28;20229;-79
2023/09/25 08:15:43;;;;;;;19.17;3.70;;;;;;;-143.19;100.00;53775.09;4953771;29;20289;-78
2023/09/25 08:18:09;;;;;;;22.10;4.53;;;;;;;-143.19;100.00;53775.09;4954924;28;20724;-79
2023/09/25 08:20:37;;;;;;;20.50;3.90;;;;;;;-143.19;100.00;53775.09;4949243;28;20249;-79
2023/09/25 08:23:03;;;;;;;46.70;8.85;;;;;;;-143.19;100.00;53775.09;4952364;29;20226;-79
2023/09/25 08:25:30;;;;;;;20.70;4.03;;;;;;;-143.19;100.00;53775.09;4948879;28;20308;-79
2023/09/25 08:27:57;;;;;;;22.75;4.40;;;;;;;-143.19;100.00;53775.09;4956926;28;20249;-79
2023/09/25 08:30:25;;;;;;;19.38;3.65;;;;;;;-143.19;100.00;53775.09;4955559;28;20232;-79
2023/09/25 08:32:53;;;;;;;30.25;5.97;;;;;;;-143.19;100.00;53775.09;4955102;28;20261;-78
2023/09/25 08:35:21;;;;;;;21.58;4.28;;;;;;;-143.19;100.00;53775.09;4952998;28;20213;-79
2023/09/25 08:37:48;;;;;;;27.77;5.45;;;;;;;-143.19;100.00;53775.09;4954053;28;20214;-79
2023/09/25 08:40:15;;;;;;;23.30;4.40;;;;;;;-143.19;100.00;53775.09;4953365;29;20220;-79
2023/09/25 08:42:42;;;;;;;25.05;4.70;;;;;;;-143.19;100.00;53775.09;4969845;28;20249;-79
2023/09/25 08:45:09;;;;;;;19.20;3.92;;;;;;;-143.19;100.00;53775.09;4952027;28;20290;-79
2023/09/25 08:47:36;;;;;;;21.95;4.82;;;;;;;-143.19;100.00;53775.09;4950914;29;20245;-79
2023/09/25 08:50:04;;;;;;;14.20;2.92;;;;;;;-143.19;100.00;53775.09;4953838;29;20239;-79
2023/09/25 08:52:31;;;;;;;18.95;3.78;;;;;;;-143.19;100.00;53775.09;4950329;29;20225;-79
2023/09/25 08:55:02;;;;;;;18.67;3.92;;;;;;;-143.19;100.00;53775.09;4952739;29;20229;-79
2023/09/25 08:57:29;;;;;;;20.48;5.10;;;;;;;-143.19;100.00;53775.09;4955186;28;20205;-80
2023/09/25 08:59:56;;;;;;;24.05;9.85;;;;;;;-143.19;100.00;53775.09;4955341;28;20237;-79
2023/09/25 09:02:23;;;;;;;24.60;10.90;;;;;;;-143.19;100.00;53775.09;4953500;29;20217;-79
2023/09/25 09:04:51;;;;;;;21.27;6.70;;;;;;;-143.19;100.00;53775.09;4950349;29;20234;-79
2023/09/25 09:07:18;;;;;;;26.92;17.20;;;;;;;-143.19;100.00;53775.09;4953291;29;20309;-79
2023/09/25 09:09:46;;;;;;;30.33;19.42;;;;;;;-143.19;100.00;53775.09;4954850;28;20239;-80
2023/09/25 09:12:13;;;;;;;33.75;29.50;;;;;;;-143.19;100.00;53775.09;4953103;28;20219;-79
2023/09/25 09:14:41;;;;;;;26.75;17.42;;;;;;;-143.19;100.00;53775.09;4959338;28;20237;-80
2023/09/25 09:17:10;;;;;;;63.47;57.50;;;;;;;-143.19;100.00;53775.09;4942079;29;20220;-79
2023/09/25 09:19:57;;;;;;;98.00;92.50;;;;;;;-143.19;100.00;53775.09;4944923;28;20222;-79
2023/09/25 09:22:25;;;;;;;49.10;45.15;;;;;;;-143.19;100.00;53775.09;4963764;28;20226;-79
2023/09/25 09:24:56;;;;;;;138.88;129.93;;;;;;;-143.19;100.00;53775.09;4955927;28;20240;-79
2023/09/25 09:27:25;;;;;;;51.83;47.72;;;;;;;-143.19;100.00;53775.09;4942196;28;20210;-80
2023/09/25 09:29:52;;;;;;;67.15;60.85;;;;;;;-143.19;100.00;53775.09;4949015;28;20301;-81
2023/09/25 09:32:19;;;;;;;91.60;85.65;;;;;;;-143.19;100.00;53775.09;4954630;28;20217;-80
2023/09/25 09:34:48;;;;;;;59.47;54.97;;;;;;;-143.19;100.00;53775.09;4954029;29;20233;-79
2023/09/25 09:37:15;;;;;;;51.80;46.92;;;;;;;-143.19;100.00;53775.09;4951811;28;20237;-80
2023/09/25 09:39:45;;;;;;;106.78;99.85;;;;;;;-143.19;100.00;53775.09;4955119;28;20229;-79
2023/09/25 09:42:14;;;;;;;118.75;111.55;;;;;;;-143.19;100.00;53775.09;4953815;28;20229;-79
2023/09/25 09:44:43;;;;;;;114.68;108.13;;;;;;;-143.19;100.00;53775.09;4953369;29;20320;-79
2023/09/25 09:47:10;;;;;;;56.15;51.05;;;;;;;-143.19;100.00;53775.09;4949886;28;20213;-80
2023/09/25 09:49:39;;;;;;;82.93;76.55;;;;;;;-143.19;100.00;53775.09;4954515;28;20214;-79
2023/09/25 09:52:07;;;;;;;56.67;51.40;;;;;;;-143.19;100.00;53775.09;4947228;28;20297;-80
2023/09/25 09:54:42;;;;;;;89.07;83.60;;;;;;;-143.19;100.00;53775.09;4954153;28;20261;-80
2023/09/25 09:57:10;;;;;;;115.70;108.05;;;;;;;-143.19;100.00;53775.09;4947671;28;20209;-79
2023/09/25 09:59:37;;;;;;;207.98;195.55;;;;;;;-143.19;100.00;53775.09;4948993;28;20210;-79
2023/09/25 10:02:04;;;;;;;55.58;50.75;;;;;;;-143.19;100.00;53775.09;4949906;28;20210;-81
2023/09/25 10:04:32;;;;;;;62.53;56.75;;;;;;;-143.19;100.00;53775.09;4951471;28;20292;-80
2023/09/25 10:07:04;;;;;;;45.40;37.80;;;;;;;-143.19;100.00;53775.09;4950383;28;20209;-80
2023/09/25 10:09:32;;;;;;;107.95;100.88;;;;;;;-143.19;100.00;53775.09;4949239;28;20575;-79
2023/09/25 10:11:58;;;;;;;121.00;113.00;;;;;;;-143.19;100.00;53775.09;4949256;28;20214;-79
2023/09/25 10:14:26;;;;;;;49.03;43.85;;;;;;;-143.19;100.00;53775.09;4954140;28;20813;-79
2023/09/25 10:17:06;;;;;;;44.35;40.20;;;;;;;-143.19;100.00;53775.09;4954138;28;20389;-79
2023/09/25 10:19:53;;;;;;;31.80;11.65;;;;;;;-143.19;100.00;53775.09;4955214;28;20222;-80
2023/09/25 10:22:26;;;;;;;43.53;31.33;;;;;;;-143.19;100.00;53775.09;4947599;28;20237;-80
2023/09/25 10:25:04;;;;;;;49.15;44.58;;;;;;;-143.19;100.00;53775.09;4954998;28;20258;-80
2023/09/25 10:27:31;;;;;;;31.55;28.20;;;;;;;-143.19;100.00;53775.09;4953573;28;20213;-80
2023/09/25 10:30:11;;;;;;;66.40;60.80;;;;;;;-143.19;100.00;53775.09;4954110;28;20709;-79
2023/09/25 10:32:40;;;;;;;46.40;41.17;;;;;;;-143.19;100.00;53775.09;4947209;28;20292;-79
2023/09/25 10:35:48;;;;;;;73.72;67.35;;;;;;;-143.19;100.00;53775.09;4950891;28;20243;-80
2023/09/25 10:38:26;;;;;;;89.85;83.68;;;;;;;-143.19;100.00;53775.09;4950996;28;20752;-80
2023/09/25 10:40:58;;;;;;;71.93;65.75;;;;;;;-143.19;100.00;53775.09;4954562;28;20205;-81
2023/09/25 10:43:25;;;;;;;64.00;56.65;;;;;;;-143.19;100.00;53775.09;4953451;28;20229;-80
2023/09/25 10:45:54;;;;;;;43.63;27.23;;;;;;;-143.19;100.00;53775.09;4954678;28;20205;-80
2023/09/25 10:48:25;;;;;;;106.28;97.97;;;;;;;-143.19;100.00;53775.09;4951978;28;20662;-81
2023/09/25 10:50:52;;;;;;;38.08;22.33;;;;;;;-143.19;100.00;53775.09;4951094;28;20275;-80
2023/09/25 10:53:19;;;;;;;98.85;92.40;;;;;;;-143.19;100.00;53775.09;4954934;28;20235;-80
2023/09/25 10:55:47;;;;;;;57.25;52.45;;;;;;;-143.19;100.00;53775.09;4956365;28;20316;-81
2023/09/25 10:58:14;;;;;;;74.32;68.18;;;;;;;-143.19;100.00;53775.09;4952509;28;20216;-81
2023/09/25 11:00:42;;;;;;;71.25;66.82;;;;;;;-143.19;100.00;53775.09;4958729;28;20221;-80
2023/09/25 11:03:09;;;;;;;105.40;97.38;;;;;;;-143.19;100.00;53775.09;4954051;28;20336;-80